EWG2UQ EDDL-LKPR
Flight info
| Callsign | EWG2UQ |
|---|---|
| Flight time | 1h 4m |
| Altitude | 35000 |
| Route | MEVEL L179 MISRI Z851 ELTUK Z47 EXOBA DCT NOMKA DCT SUVUT L620 PIKIB T620 LALUK DCT GOLOP |
| Aircraft | A319/M-SDE3FGHIRWY/LB1 |
Departure
| Time | 2026-05-04 11:02 |
|---|---|
| Airport | Düsseldorf Airport (EDDL) |
Arrival
| Time | 2026-05-04 12:06 |
|---|---|
| Airport | Václav Havel Airport Prague (LKPR) |
| Time | Latitude | Longitude | Altitude | Speed | Heading |
|---|---|---|---|---|---|
| 2026-05-04 10:37 | 51.28059 | 6.76705 | 0 ft | 0 kts | 276° |
| 2026-05-04 10:52 | 51.28059 | 6.76708 | 130 ft | 2 kts | 275° |
| 2026-05-04 10:54 | 51.28095 | 6.76806 | 129 ft | 0 kts | 17° |
| 2026-05-04 10:56 | 51.28095 | 6.76807 | 129 ft | 1 kts | 17° |
| 2026-05-04 10:56 | 51.28109 | 6.76814 | 130 ft | 3 kts | 17° |
| 2026-05-04 10:57 | 51.28141 | 6.76828 | 129 ft | 7 kts | 13° |
| 2026-05-04 10:57 | 51.28202 | 6.76843 | 130 ft | 10 kts | 7° |
| 2026-05-04 10:57 | 51.28275 | 6.76856 | 130 ft | 12 kts | 7° |
| 2026-05-04 10:57 | 51.28363 | 6.76867 | 128 ft | 10 kts | 351° |
| 2026-05-04 10:58 | 51.28428 | 6.76800 | 125 ft | 13 kts | 321° |
| 2026-05-04 10:58 | 51.28503 | 6.76802 | 124 ft | 12 kts | 53° |
| 2026-05-04 10:58 | 51.28552 | 6.76909 | 129 ft | 12 kts | 53° |
| 2026-05-04 10:58 | 51.28605 | 6.77022 | 127 ft | 14 kts | 53° |
| 2026-05-04 10:59 | 51.28669 | 6.77156 | 128 ft | 17 kts | 52° |
| 2026-05-04 10:59 | 51.28748 | 6.77319 | 130 ft | 20 kts | 52° |
| 2026-05-04 10:59 | 51.28835 | 6.77502 | 129 ft | 22 kts | 53° |
| 2026-05-04 10:59 | 51.28929 | 6.77701 | 126 ft | 23 kts | 52° |
| 2026-05-04 11:00 | 51.29031 | 6.77914 | 131 ft | 25 kts | 53° |
| 2026-05-04 11:01 | 51.28578 | 6.76496 | 132 ft | 142 kts | 233° |
| 2026-05-04 11:02 | 51.27963 | 6.75196 | 626 ft | 146 kts | 231° |
| 2026-05-04 11:02 | 51.27343 | 6.73894 | 1262 ft | 147 kts | 233° |
| 2026-05-04 11:05 | 51.49324 | 6.69608 | 10619 ft | 347 kts | 358° |
| 2026-05-04 11:06 | 51.51777 | 6.69591 | 11182 ft | 357 kts | 358° |
| 2026-05-04 11:06 | 51.54283 | 6.69588 | 11910 ft | 362 kts | 358° |
| 2026-05-04 11:06 | 51.56815 | 6.69616 | 12645 ft | 367 kts | 1° |
| 2026-05-04 11:06 | 51.59352 | 6.70295 | 13394 ft | 373 kts | 16° |
| 2026-05-04 11:08 | 51.72027 | 6.91435 | 18045 ft | 393 kts | 54° |
| 2026-05-04 11:10 | 51.83706 | 7.17036 | 22014 ft | 415 kts | 56° |
| 2026-05-04 11:12 | 51.93699 | 7.46238 | 25265 ft | 434 kts | 67° |
| 2026-05-04 11:12 | 51.94791 | 7.50795 | 25656 ft | 434 kts | 76° |
| 2026-05-04 11:12 | 51.95597 | 7.55525 | 26038 ft | 437 kts | 78° |
| 2026-05-04 11:12 | 51.96402 | 7.60297 | 26421 ft | 440 kts | 78° |
| 2026-05-04 11:13 | 51.97212 | 7.65100 | 26801 ft | 444 kts | 77° |
| 2026-05-04 11:13 | 51.98028 | 7.69942 | 27204 ft | 447 kts | 77° |
| 2026-05-04 11:13 | 51.98794 | 7.74846 | 27584 ft | 449 kts | 83° |
| 2026-05-04 11:13 | 51.99085 | 7.79870 | 27971 ft | 447 kts | 94° |
| 2026-05-04 11:14 | 51.98806 | 7.84880 | 28342 ft | 445 kts | 105° |
| 2026-05-04 11:14 | 51.97989 | 7.89696 | 28703 ft | 443 kts | 115° |
| 2026-05-04 11:14 | 51.96667 | 7.94184 | 29064 ft | 440 kts | 126° |
| 2026-05-04 11:16 | 51.83566 | 8.19730 | 31249 ft | 450 kts | 135° |
| 2026-05-04 11:16 | 51.81530 | 8.23595 | 31560 ft | 452 kts | 135° |
| 2026-05-04 11:16 | 51.79505 | 8.27475 | 31931 ft | 453 kts | 133° |
| 2026-05-04 11:17 | 51.77746 | 8.31716 | 32366 ft | 457 kts | 123° |
| 2026-05-04 11:17 | 51.76412 | 8.36405 | 32803 ft | 462 kts | 114° |
| 2026-05-04 11:19 | 51.71315 | 8.71847 | 35001 ft | 457 kts | 107° |
| 2026-05-04 11:19 | 51.70623 | 8.76766 | 34999 ft | 455 kts | 107° |
| 2026-05-04 11:19 | 51.69222 | 8.86705 | 34998 ft | 455 kts | 107° |
| 2026-05-04 11:20 | 51.67802 | 8.96698 | 34989 ft | 455 kts | 107° |
| 2026-05-04 11:20 | 51.66384 | 9.06555 | 34998 ft | 455 kts | 107° |
| 2026-05-04 11:22 | 51.60617 | 9.46185 | 34984 ft | 455 kts | 107° |
| 2026-05-04 11:23 | 51.59163 | 9.56082 | 34981 ft | 455 kts | 107° |
| 2026-05-04 11:25 | 51.53961 | 9.90725 | 34975 ft | 455 kts | 107° |
| 2026-05-04 11:25 | 51.52467 | 10.00611 | 34982 ft | 455 kts | 107° |
| 2026-05-04 11:27 | 51.45601 | 10.44963 | 34980 ft | 455 kts | 108° |
| 2026-05-04 11:28 | 51.44054 | 10.54801 | 34988 ft | 455 kts | 108° |
| 2026-05-04 11:28 | 51.42501 | 10.64635 | 34981 ft | 455 kts | 108° |
| 2026-05-04 11:29 | 51.40941 | 10.74470 | 34984 ft | 455 kts | 108° |
| 2026-05-04 11:29 | 51.39375 | 10.84294 | 34986 ft | 456 kts | 108° |
| 2026-05-04 11:33 | 51.28131 | 11.52977 | 34993 ft | 457 kts | 108° |
| 2026-05-04 11:33 | 51.26467 | 11.62761 | 35000 ft | 457 kts | 108° |
| 2026-05-04 11:34 | 51.24818 | 11.72557 | 34999 ft | 457 kts | 108° |
| 2026-05-04 11:34 | 51.23163 | 11.82344 | 35002 ft | 457 kts | 108° |
| 2026-05-04 11:35 | 51.21492 | 11.92130 | 35000 ft | 457 kts | 108° |
| 2026-05-04 11:35 | 51.19815 | 12.01907 | 34999 ft | 457 kts | 108° |
| 2026-05-04 11:36 | 51.18140 | 12.11696 | 34997 ft | 457 kts | 108° |
| 2026-05-04 11:36 | 51.16455 | 12.21469 | 35005 ft | 458 kts | 108° |
| 2026-05-04 11:37 | 51.14757 | 12.31231 | 35020 ft | 458 kts | 108° |
| 2026-05-04 11:37 | 51.13032 | 12.40986 | 35023 ft | 458 kts | 108° |
| 2026-05-04 11:38 | 51.11295 | 12.50734 | 35026 ft | 458 kts | 108° |
| 2026-05-04 11:38 | 51.09549 | 12.60470 | 35030 ft | 458 kts | 108° |
| 2026-05-04 11:39 | 51.07797 | 12.70214 | 35025 ft | 458 kts | 108° |
| 2026-05-04 11:40 | 51.02521 | 12.99308 | 33145 ft | 452 kts | 108° |
| 2026-05-04 11:41 | 51.01647 | 13.04081 | 32636 ft | 449 kts | 108° |
| 2026-05-04 11:41 | 51.00776 | 13.08824 | 32127 ft | 446 kts | 108° |
| 2026-05-04 11:41 | 50.99911 | 13.13533 | 31628 ft | 443 kts | 108° |
| 2026-05-04 11:41 | 50.99046 | 13.18219 | 31130 ft | 441 kts | 108° |
| 2026-05-04 11:42 | 50.98184 | 13.22878 | 30635 ft | 439 kts | 108° |
| 2026-05-04 11:42 | 50.97323 | 13.27504 | 30142 ft | 436 kts | 108° |
| 2026-05-04 11:42 | 50.96461 | 13.32110 | 29637 ft | 433 kts | 108° |
| 2026-05-04 11:42 | 50.95620 | 13.36670 | 29182 ft | 428 kts | 108° |
| 2026-05-04 11:43 | 50.94807 | 13.41194 | 28750 ft | 424 kts | 108° |
| 2026-05-04 11:43 | 50.94013 | 13.45673 | 28312 ft | 420 kts | 108° |
| 2026-05-04 11:43 | 50.93230 | 13.50113 | 27889 ft | 416 kts | 108° |
| 2026-05-04 11:43 | 50.92440 | 13.54504 | 27471 ft | 412 kts | 108° |
| 2026-05-04 11:44 | 50.91636 | 13.58838 | 27066 ft | 409 kts | 109° |
| 2026-05-04 11:44 | 50.90826 | 13.63135 | 26660 ft | 406 kts | 109° |
| 2026-05-04 11:44 | 50.89990 | 13.67394 | 26274 ft | 402 kts | 113° |
| 2026-05-04 11:44 | 50.88818 | 13.71377 | 25876 ft | 396 kts | 123° |
| 2026-05-04 11:45 | 50.87256 | 13.74920 | 25487 ft | 390 kts | 133° |
| 2026-05-04 11:45 | 50.85533 | 13.78208 | 25098 ft | 387 kts | 133° |
| 2026-05-04 11:45 | 50.83828 | 13.81481 | 24695 ft | 384 kts | 133° |
| 2026-05-04 11:45 | 50.82137 | 13.84738 | 24295 ft | 382 kts | 132° |
| 2026-05-04 11:46 | 50.80502 | 13.88030 | 23884 ft | 381 kts | 127° |
| 2026-05-04 11:46 | 50.79159 | 13.91656 | 23424 ft | 382 kts | 122° |
| 2026-05-04 11:46 | 50.77878 | 13.95319 | 22942 ft | 379 kts | 122° |
| 2026-05-04 11:46 | 50.76604 | 13.98951 | 22491 ft | 376 kts | 122° |
| 2026-05-04 11:47 | 50.75341 | 14.02545 | 22055 ft | 373 kts | 122° |
| 2026-05-04 11:47 | 50.74083 | 14.06106 | 21604 ft | 370 kts | 122° |
| 2026-05-04 11:47 | 50.72833 | 14.09633 | 21159 ft | 367 kts | 122° |
| 2026-05-04 11:47 | 50.71589 | 14.13133 | 20702 ft | 365 kts | 122° |
| 2026-05-04 11:48 | 50.70352 | 14.16610 | 20274 ft | 363 kts | 122° |
| 2026-05-04 11:48 | 50.68858 | 14.19794 | 19627 ft | 361 kts | 139° |
| 2026-05-04 11:48 | 50.66836 | 14.22053 | 19112 ft | 354 kts | 158° |
| 2026-05-04 11:48 | 50.64537 | 14.23347 | 18638 ft | 350 kts | 166° |
| 2026-05-04 11:49 | 50.62219 | 14.24488 | 18164 ft | 348 kts | 166° |
| 2026-05-04 11:49 | 50.59914 | 14.25609 | 17655 ft | 346 kts | 166° |
| 2026-05-04 11:49 | 50.57620 | 14.26721 | 17194 ft | 343 kts | 166° |
| 2026-05-04 11:49 | 50.55348 | 14.27824 | 16738 ft | 341 kts | 166° |
| 2026-05-04 11:50 | 50.53094 | 14.28918 | 16295 ft | 338 kts | 166° |
| 2026-05-04 11:50 | 50.50856 | 14.30002 | 15857 ft | 335 kts | 165° |
| 2026-05-04 11:50 | 50.48637 | 14.31074 | 15442 ft | 333 kts | 166° |
| 2026-05-04 11:50 | 50.46434 | 14.32136 | 15012 ft | 330 kts | 166° |
| 2026-05-04 11:51 | 50.44248 | 14.33189 | 14605 ft | 327 kts | 166° |
| 2026-05-04 11:51 | 50.42044 | 14.33942 | 14201 ft | 322 kts | 175° |
| 2026-05-04 11:51 | 50.39830 | 14.34379 | 13801 ft | 320 kts | 175° |
| 2026-05-04 11:51 | 50.37628 | 14.34818 | 13328 ft | 318 kts | 175° |
| 2026-05-04 11:52 | 50.35429 | 14.35258 | 12756 ft | 319 kts | 175° |
| 2026-05-04 11:52 | 50.33229 | 14.35699 | 12277 ft | 318 kts | 175° |
| 2026-05-04 11:52 | 50.31038 | 14.36138 | 11831 ft | 316 kts | 175° |
| 2026-05-04 11:52 | 50.28864 | 14.36572 | 11397 ft | 314 kts | 175° |
| 2026-05-04 11:53 | 50.26703 | 14.37004 | 10974 ft | 312 kts | 175° |
| 2026-05-04 11:53 | 50.25279 | 14.37289 | 10699 ft | 311 kts | 175° |
| 2026-05-04 11:53 | 50.22468 | 14.37853 | 10477 ft | 297 kts | 175° |
| 2026-05-04 11:53 | 50.20458 | 14.38258 | 10358 ft | 287 kts | 175° |
| 2026-05-04 11:55 | 50.09766 | 14.48185 | 8242 ft | 287 kts | 129° |
| 2026-05-04 11:55 | 50.08560 | 14.50665 | 7917 ft | 287 kts | 129° |
| 2026-05-04 11:56 | 50.07356 | 14.53130 | 7610 ft | 285 kts | 129° |
| 2026-05-04 11:56 | 50.06157 | 14.55582 | 7304 ft | 284 kts | 129° |
| 2026-05-04 11:56 | 50.04964 | 14.58026 | 6981 ft | 283 kts | 129° |
| 2026-05-04 11:56 | 50.03771 | 14.60465 | 6658 ft | 283 kts | 129° |
| 2026-05-04 11:57 | 50.02582 | 14.62897 | 6333 ft | 282 kts | 129° |
| 2026-05-04 11:57 | 50.01397 | 14.65323 | 6012 ft | 281 kts | 129° |
| 2026-05-04 11:57 | 50.00218 | 14.67731 | 5677 ft | 279 kts | 129° |
| 2026-05-04 11:57 | 49.99048 | 14.70120 | 5349 ft | 277 kts | 128° |
| 2026-05-04 11:58 | 49.97876 | 14.72491 | 5023 ft | 276 kts | 130° |
| 2026-05-04 11:58 | 49.96399 | 14.74328 | 4844 ft | 271 kts | 157° |
| 2026-05-04 11:58 | 49.94589 | 14.74915 | 4594 ft | 267 kts | 185° |
| 2026-05-04 11:58 | 49.92828 | 14.74158 | 4423 ft | 263 kts | 210° |
| 2026-05-04 11:59 | 49.91444 | 14.72345 | 4193 ft | 261 kts | 234° |
| 2026-05-04 11:59 | 49.90683 | 14.69826 | 4032 ft | 258 kts | 258° |
| 2026-05-04 11:59 | 49.90651 | 14.67128 | 3994 ft | 246 kts | 281° |
| 2026-05-04 11:59 | 49.91253 | 14.64726 | 3992 ft | 233 kts | 302° |
| 2026-05-04 12:00 | 49.92197 | 14.62750 | 3998 ft | 223 kts | 307° |
| 2026-05-04 12:00 | 49.93121 | 14.60864 | 4004 ft | 218 kts | 307° |
| 2026-05-04 12:00 | 49.94033 | 14.59004 | 3998 ft | 216 kts | 307° |
| 2026-05-04 12:00 | 49.94939 | 14.57152 | 3992 ft | 215 kts | 306° |
| 2026-05-04 12:01 | 49.95845 | 14.55300 | 4004 ft | 216 kts | 306° |
| 2026-05-04 12:01 | 49.96752 | 14.53446 | 4013 ft | 213 kts | 306° |
| 2026-05-04 12:02 | 50.01658 | 14.43387 | 3652 ft | 187 kts | 306° |
| 2026-05-04 12:03 | 50.02436 | 14.41790 | 3411 ft | 182 kts | 306° |
| 2026-05-04 12:03 | 50.03182 | 14.40257 | 3187 ft | 173 kts | 307° |
| 2026-05-04 12:03 | 50.03891 | 14.38798 | 2958 ft | 165 kts | 307° |
| 2026-05-04 12:03 | 50.04564 | 14.37413 | 2751 ft | 156 kts | 307° |
| 2026-05-04 12:04 | 50.05203 | 14.36096 | 2553 ft | 150 kts | 307° |
| 2026-05-04 12:04 | 50.05828 | 14.34807 | 2357 ft | 149 kts | 308° |
| 2026-05-04 12:04 | 50.06453 | 14.33523 | 2144 ft | 149 kts | 307° |
| 2026-05-04 12:04 | 50.07078 | 14.32233 | 1957 ft | 149 kts | 308° |
| 2026-05-04 12:05 | 50.07705 | 14.30940 | 1744 ft | 149 kts | 308° |
| 2026-05-04 12:05 | 50.08325 | 14.29648 | 1528 ft | 148 kts | 308° |
| 2026-05-04 12:05 | 50.08948 | 14.28377 | 1313 ft | 148 kts | 309° |
| 2026-05-04 12:05 | 50.09541 | 14.27149 | 1215 ft | 132 kts | 307° |
| 2026-05-04 12:06 | 50.09971 | 14.26256 | 1201 ft | 78 kts | 307° |
| 2026-05-04 12:06 | 50.10197 | 14.25788 | 1188 ft | 33 kts | 309° |
| 2026-05-04 12:06 | 50.10341 | 14.25665 | 1186 ft | 20 kts | 347° |
| 2026-05-04 12:06 | 50.10466 | 14.25668 | 1185 ft | 19 kts | 13° |
| 2026-05-04 12:07 | 50.10577 | 14.25760 | 1183 ft | 14 kts | 35° |
| 2026-05-04 12:07 | 50.10667 | 14.25855 | 1174 ft | 17 kts | 34° |
| 2026-05-04 12:07 | 50.10741 | 14.25934 | 1176 ft | 9 kts | 34° |
| 2026-05-04 12:07 | 50.10778 | 14.25934 | 1175 ft | 6 kts | 313° |
| 2026-05-04 12:08 | 50.10800 | 14.25883 | 1175 ft | 7 kts | 304° |
| 2026-05-04 12:08 | 50.10807 | 14.25867 | 1173 ft | 0 kts | 304° |